createdAt,value
2023-02-02T00:00:09.351Z,0.60
2023-02-02T00:02:14.773Z,0.30
2023-02-02T00:04:23.095Z,0.40
2023-02-02T00:06:30.255Z,0.38
2023-02-02T00:08:36.020Z,0.57
2023-02-02T00:10:43.499Z,0.40
2023-02-02T00:12:48.398Z,0.50
2023-02-02T00:14:53.307Z,0.50
2023-02-02T00:16:59.370Z,0.40
2023-02-02T00:19:07.367Z,0.50
2023-02-02T00:23:17.324Z,0.40
2023-02-02T00:25:22.468Z,0.73
2023-02-02T00:27:30.327Z,0.40
2023-02-02T00:29:35.869Z,0.45
2023-02-02T00:31:41.274Z,0.20
2023-02-02T00:33:48.106Z,0.40
2023-02-02T00:35:55.509Z,0.50
2023-02-02T00:38:00.865Z,0.30
2023-02-02T00:40:06.152Z,0.60
2023-02-02T00:42:14.399Z,0.25
2023-02-02T00:44:34.481Z,0.20
2023-02-02T00:46:43.542Z,0.40
2023-02-02T00:48:48.475Z,0.15
2023-02-02T00:50:54.105Z,0.40
2023-02-02T00:52:59.188Z,0.30
2023-02-02T00:55:04.532Z,0.28
2023-02-02T00:57:09.643Z,0.40
2023-02-02T00:59:16.963Z,0.40
2023-02-02T01:01:26.522Z,0.30
2023-02-02T01:05:38.019Z,0.20
2023-02-02T01:07:43.376Z,0.40
2023-02-02T01:09:48.719Z,0.20
2023-02-02T01:11:54.744Z,0.40
2023-02-02T01:13:59.880Z,0.40
2023-02-02T01:16:07.223Z,0.40
2023-02-02T01:18:17.204Z,0.22
2023-02-02T01:20:24.276Z,0.25
2023-02-02T01:22:30.077Z,0.47
2023-02-02T01:24:35.111Z,0.20
2023-02-02T01:26:40.354Z,0.22
2023-02-02T01:28:46.294Z,0.50
2023-02-02T01:30:52.279Z,0.45
2023-02-02T01:32:59.568Z,0.30
2023-02-02T01:35:08.425Z,0.28
2023-02-02T01:37:13.644Z,0.30
2023-02-02T01:39:18.553Z,0.28
2023-02-02T01:41:26.368Z,0.38
2023-02-02T01:43:34.521Z,0.22
2023-02-02T01:45:40.124Z,0.35
2023-02-02T01:47:50.373Z,0.15
2023-02-02T01:49:58.627Z,0.28
2023-02-02T01:52:06.190Z,0.50
2023-02-02T01:56:29.638Z,0.20
2023-02-02T02:00:47.189Z,0.43
2023-02-02T02:02:52.425Z,0.38
2023-02-02T02:04:59.575Z,0.40
2023-02-02T02:07:08.901Z,0.40
2023-02-02T02:09:14.570Z,0.75
2023-02-02T02:11:19.808Z,0.30
2023-02-02T02:13:50.905Z,0.40
2023-02-02T02:16:19.497Z,0.43
2023-02-02T02:18:40.476Z,0.50
2023-02-02T02:21:35.082Z,0.20
2023-02-02T02:24:43.769Z,0.30
2023-02-02T02:27:17.364Z,0.10
2023-02-02T02:30:09.809Z,0.30
2023-02-02T02:32:30.720Z,0.30
2023-02-02T02:34:50.699Z,0.30
2023-02-02T02:37:06.697Z,0.30
2023-02-02T02:39:20.781Z,0.20
2023-02-02T02:41:31.616Z,0.30
2023-02-02T02:43:44.750Z,0.20
2023-02-02T02:45:50.726Z,0.30
2023-02-02T02:47:58.950Z,0.38
2023-02-02T02:50:04.557Z,0.22
2023-02-02T02:52:11.695Z,0.38
2023-02-02T02:54:21.038Z,0.50
2023-02-02T02:56:44.534Z,0.32
2023-02-02T02:58:58.743Z,0.25
2023-02-02T03:01:18.409Z,0.30
2023-02-02T03:03:48.495Z,0.50
2023-02-02T03:06:04.036Z,0.50
2023-02-02T03:08:16.094Z,0.40
2023-02-02T03:10:25.386Z,0.50
2023-02-02T03:12:30.316Z,0.55
2023-02-02T03:14:39.409Z,0.30
2023-02-02T03:16:44.312Z,0.50
2023-02-02T03:18:51.817Z,0.20
2023-02-02T03:20:56.896Z,0.40
2023-02-02T03:23:01.807Z,0.30
2023-02-02T03:25:07.764Z,0.30
2023-02-02T03:27:12.951Z,0.32
2023-02-02T03:29:18.125Z,1.02
2023-02-02T03:31:23.279Z,0.40
2023-02-02T03:33:28.368Z,0.50
2023-02-02T03:35:36.120Z,0.57
2023-02-02T03:37:42.620Z,0.60
2023-02-02T03:39:47.535Z,0.63
2023-02-02T03:41:52.419Z,0.80
2023-02-02T03:43:57.303Z,1.00
2023-02-02T03:46:04.420Z,1.10
2023-02-02T03:48:10.249Z,0.70
2023-02-02T03:50:15.798Z,0.80
2023-02-02T03:52:23.273Z,0.90
2023-02-02T03:54:28.468Z,0.88
2023-02-02T03:56:33.674Z,0.70
2023-02-02T03:58:38.869Z,0.70
2023-02-02T04:00:44.020Z,0.88
2023-02-02T04:02:49.351Z,0.60
2023-02-02T04:04:54.786Z,0.75
2023-02-02T04:07:00.298Z,0.70
2023-02-02T04:09:08.424Z,0.80
2023-02-02T04:11:14.249Z,0.88
2023-02-02T04:13:19.840Z,0.63
2023-02-02T04:15:25.218Z,0.77
2023-02-02T04:17:32.426Z,0.88
2023-02-02T04:19:38.088Z,0.90
2023-02-02T04:21:44.031Z,0.70
2023-02-02T04:23:49.825Z,0.80
2023-02-02T04:25:58.098Z,0.70
2023-02-02T04:28:03.046Z,0.60
2023-02-02T04:30:09.841Z,0.70
2023-02-02T04:32:14.964Z,0.85
2023-02-02T04:34:20.101Z,0.88
2023-02-02T04:36:28.413Z,0.68
2023-02-02T04:38:33.898Z,0.90
2023-02-02T04:40:42.401Z,1.10
2023-02-02T04:42:50.099Z,1.38
2023-02-02T04:44:55.595Z,1.00
2023-02-02T04:47:00.504Z,0.90
2023-02-02T04:49:06.323Z,1.10
2023-02-02T04:51:14.183Z,1.20
2023-02-02T04:53:19.466Z,1.10
2023-02-02T04:55:25.797Z,1.23
2023-02-02T04:57:30.916Z,1.20
2023-02-02T04:59:42.191Z,1.33
2023-02-02T05:01:48.306Z,1.05
2023-02-02T05:03:54.215Z,1.17
2023-02-02T05:06:05.265Z,1.38
2023-02-02T05:08:12.430Z,0.88
2023-02-02T05:10:17.729Z,1.27
2023-02-02T05:12:23.010Z,1.00
2023-02-02T05:14:28.340Z,1.05
2023-02-02T05:16:36.162Z,1.13
2023-02-02T05:18:41.070Z,1.08
2023-02-02T05:20:45.967Z,0.80
2023-02-02T05:22:52.426Z,0.90
2023-02-02T05:24:57.886Z,1.20
2023-02-02T05:27:03.449Z,0.90
2023-02-02T05:29:09.437Z,0.70
2023-02-02T05:31:15.448Z,0.93
2023-02-02T05:33:22.921Z,1.02
2023-02-02T05:35:27.938Z,1.10
2023-02-02T05:37:32.952Z,0.95
2023-02-02T05:39:38.205Z,1.02
2023-02-02T05:41:43.362Z,0.90
2023-02-02T05:43:48.566Z,0.70
2023-02-02T05:45:54.011Z,0.80
2023-02-02T05:47:58.985Z,0.90
2023-02-02T05:50:07.723Z,1.08
2023-02-02T05:52:20.464Z,1.20
2023-02-02T05:54:25.852Z,1.17
2023-02-02T05:56:30.856Z,1.02
2023-02-02T05:58:35.760Z,1.50
2023-02-02T06:00:40.835Z,1.60
2023-02-02T06:02:45.860Z,1.75
2023-02-02T06:04:50.847Z,1.50
2023-02-02T06:06:58.439Z,1.98
2023-02-02T06:09:03.363Z,1.80
2023-02-02T06:11:13.043Z,1.88
2023-02-02T06:13:18.793Z,0.95
2023-02-02T06:15:24.496Z,1.25
2023-02-02T06:17:29.587Z,1.42
2023-02-02T06:19:35.143Z,1.20
2023-02-02T06:21:40.774Z,0.80
2023-02-02T06:23:48.413Z,1.40
2023-02-02T06:25:53.489Z,1.35
2023-02-02T06:27:59.928Z,1.73
2023-02-02T06:30:06.961Z,1.65
2023-02-02T06:32:12.178Z,1.20
2023-02-02T06:34:18.048Z,1.17
2023-02-02T06:36:23.041Z,1.20
2023-02-02T06:38:28.331Z,1.23
2023-02-02T06:40:36.226Z,1.20
2023-02-02T06:44:46.767Z,1.08
2023-02-02T06:46:51.666Z,1.23
2023-02-02T06:48:59.948Z,1.40
2023-02-02T06:51:05.617Z,1.10
2023-02-02T06:53:10.791Z,1.08
2023-02-02T06:55:15.806Z,1.30
2023-02-02T06:57:24.086Z,1.08
2023-02-02T07:01:34.332Z,1.10
2023-02-02T07:03:40.398Z,0.90
2023-02-02T07:05:45.951Z,1.30
2023-02-02T07:07:51.033Z,1.15
2023-02-02T07:09:58.273Z,1.30
2023-02-02T07:12:03.886Z,1.40
2023-02-02T07:14:12.109Z,1.15
2023-02-02T07:16:18.377Z,1.60
2023-02-02T07:18:23.520Z,1.50
2023-02-02T07:20:28.734Z,1.70
2023-02-02T07:22:34.015Z,1.92
2023-02-02T07:24:39.288Z,1.60
2023-02-02T07:26:45.033Z,2.05
2023-02-02T07:28:51.073Z,2.65
2023-02-02T07:30:59.085Z,2.00
2023-02-02T07:33:04.450Z,2.22
2023-02-02T07:35:10.867Z,2.40
2023-02-02T07:37:15.857Z,1.77
2023-02-02T07:39:20.991Z,1.63
2023-02-02T07:41:27.978Z,1.50
2023-02-02T07:43:33.028Z,1.53
2023-02-02T07:45:39.767Z,1.42
2023-02-02T07:47:47.603Z,1.70
2023-02-02T07:49:52.740Z,1.45
2023-02-02T07:51:57.919Z,1.17
2023-02-02T07:54:02.935Z,1.20
2023-02-02T07:56:14.589Z,1.08
2023-02-02T07:58:19.950Z,1.35
2023-02-02T08:00:27.973Z,1.20
2023-02-02T08:02:33.046Z,1.30
2023-02-02T08:04:40.720Z,1.25
2023-02-02T08:06:46.785Z,1.20
2023-02-02T08:08:52.540Z,1.15
2023-02-02T08:10:57.912Z,0.85
2023-02-02T08:13:03.469Z,0.98
2023-02-02T08:15:12.266Z,1.08
2023-02-02T08:17:18.086Z,1.30
2023-02-02T08:19:23.480Z,1.50
2023-02-02T08:21:31.319Z,16.65
2023-02-02T08:23:36.686Z,7.82
2023-02-02T08:25:41.972Z,6.63
2023-02-02T08:27:47.326Z,6.05
2023-02-02T08:29:52.382Z,4.40
2023-02-02T08:31:57.916Z,3.17
2023-02-02T08:34:03.316Z,3.28
2023-02-02T08:36:12.763Z,3.65
2023-02-02T08:38:21.029Z,3.90
2023-02-02T08:42:31.833Z,2.40
2023-02-02T08:44:59.378Z,2.85
2023-02-02T08:47:02.043Z,3.22
2023-02-02T08:49:07.606Z,4.50
2023-02-02T08:51:15.592Z,5.70
2023-02-02T08:55:29.079Z,6.32
2023-02-02T08:57:34.599Z,5.78
2023-02-02T08:59:40.041Z,5.32
2023-02-02T09:01:45.234Z,4.80
2023-02-02T09:03:51.396Z,5.05
2023-02-02T09:05:56.407Z,6.05
2023-02-02T09:08:04.885Z,4.85
2023-02-02T09:10:13.751Z,3.75
2023-02-02T09:12:18.755Z,2.65
2023-02-02T09:14:23.802Z,2.33
2023-02-02T09:16:30.057Z,2.28
2023-02-02T09:18:35.619Z,2.53
2023-02-02T09:20:41.759Z,2.20
2023-02-02T09:22:46.801Z,2.80
2023-02-02T09:24:51.828Z,2.40
2023-02-02T09:26:59.539Z,2.60
2023-02-02T09:29:08.512Z,2.50
2023-02-02T09:31:14.839Z,2.45
2023-02-02T09:33:19.928Z,4.00
2023-02-02T09:35:25.215Z,5.35
2023-02-02T09:37:30.461Z,4.25
2023-02-02T09:39:35.746Z,3.45
2023-02-02T09:42:19.143Z,3.58
2023-02-02T09:44:40.509Z,3.90
2023-02-02T09:47:01.630Z,3.45
2023-02-02T09:49:12.422Z,4.03
2023-02-02T09:51:23.608Z,3.85
2023-02-02T09:53:54.639Z,3.25
2023-02-02T09:56:03.705Z,3.08
2023-02-02T09:58:21.772Z,3.50
2023-02-02T10:00:35.724Z,3.53
2023-02-02T10:02:45.883Z,2.95
2023-02-02T10:04:56.707Z,3.03
2023-02-02T10:07:10.382Z,3.13
2023-02-02T10:09:32.834Z,2.63
2023-02-02T10:11:46.407Z,2.92
2023-02-02T10:13:57.285Z,4.20
2023-02-02T10:16:08.621Z,3.15
2023-02-02T10:18:24.042Z,3.00
2023-02-02T10:20:41.198Z,3.28
2023-02-02T10:22:47.940Z,3.30
2023-02-02T10:24:52.875Z,3.30
2023-02-02T10:27:04.127Z,3.65
2023-02-02T10:29:20.629Z,3.22
2023-02-02T10:31:46.722Z,3.30
2023-02-02T10:34:05.254Z,2.72
2023-02-02T10:36:24.552Z,2.80
2023-02-02T10:38:39.924Z,3.40
2023-02-02T10:40:58.536Z,2.97
2023-02-02T10:43:48.970Z,3.90
2023-02-02T10:45:57.129Z,3.33
2023-02-02T10:48:02.675Z,3.55
2023-02-02T10:50:20.381Z,2.85
2023-02-02T10:52:34.039Z,3.20
2023-02-02T10:54:57.636Z,3.40
2023-02-02T10:57:07.710Z,3.65
2023-02-02T10:59:18.375Z,4.03
2023-02-02T11:01:25.921Z,3.65
2023-02-02T11:03:34.564Z,3.63
2023-02-02T11:05:52.266Z,4.22
2023-02-02T11:07:58.120Z,3.63
2023-02-02T11:10:04.120Z,3.78
2023-02-02T11:12:25.509Z,3.15
2023-02-02T11:14:45.042Z,3.72
2023-02-02T11:17:05.470Z,2.63
2023-02-02T11:19:30.806Z,3.75
2023-02-02T11:21:40.527Z,4.18
2023-02-02T11:23:59.033Z,3.70
2023-02-02T11:26:07.356Z,3.90
2023-02-02T11:28:18.937Z,4.35
2023-02-02T11:30:30.600Z,3.72
2023-02-02T11:32:38.585Z,4.15
2023-02-02T11:37:15.800Z,3.88
2023-02-02T11:39:24.394Z,4.50
2023-02-02T11:41:33.699Z,4.82
2023-02-02T11:43:44.359Z,4.30
2023-02-02T11:46:02.609Z,5.00
2023-02-02T11:48:19.705Z,4.68
2023-02-02T11:50:31.119Z,4.55
2023-02-02T11:52:36.952Z,4.57
2023-02-02T11:54:43.306Z,4.05
2023-02-02T11:56:55.088Z,4.40
2023-02-02T11:59:04.079Z,4.30
2023-02-02T12:01:09.514Z,3.80
2023-02-02T12:03:31.449Z,4.43
2023-02-02T12:05:39.904Z,4.32
2023-02-02T12:07:47.961Z,3.55
2023-02-02T12:09:53.581Z,4.40
2023-02-02T12:12:08.486Z,5.80
2023-02-02T12:14:35.576Z,4.82
2023-02-02T12:16:58.704Z,4.43
2023-02-02T12:19:31.318Z,4.25
2023-02-02T12:21:46.278Z,4.10
2023-02-02T12:24:04.347Z,4.45
2023-02-02T12:26:23.882Z,5.60
2023-02-02T12:28:49.792Z,4.38
2023-02-02T12:31:04.282Z,6.20
2023-02-02T12:33:34.027Z,5.43
2023-02-02T12:36:26.074Z,3.80
2023-02-02T12:38:49.834Z,3.10
2023-02-02T12:41:21.205Z,4.78
2023-02-02T12:43:40.387Z,3.47
2023-02-02T12:46:14.549Z,2.75
2023-02-02T12:48:38.081Z,2.47
2023-02-02T12:51:04.766Z,2.47
2023-02-02T12:53:28.974Z,2.85
2023-02-02T12:55:46.479Z,3.15
2023-02-02T12:58:06.338Z,5.97
2023-02-02T13:00:39.169Z,4.32
2023-02-02T13:02:59.816Z,11.20
2023-02-02T13:05:35.838Z,6.32
2023-02-02T13:07:46.379Z,6.88
2023-02-02T13:10:11.152Z,2.55
2023-02-02T13:12:21.407Z,1.92
2023-02-02T13:14:32.964Z,2.13
2023-02-02T13:16:41.200Z,2.45
2023-02-02T13:18:55.098Z,1.98
2023-02-02T13:21:05.173Z,2.20
2023-02-02T13:23:16.496Z,2.40
2023-02-02T13:25:30.012Z,3.38
2023-02-02T13:27:36.388Z,5.30
2023-02-02T13:29:48.649Z,3.28
2023-02-02T13:32:02.654Z,3.90
2023-02-02T13:34:18.473Z,2.88
2023-02-02T13:36:29.966Z,2.40
2023-02-02T13:38:39.257Z,2.97
2023-02-02T13:40:47.495Z,2.80
2023-02-02T13:43:00.041Z,1.52
2023-02-02T13:45:19.484Z,1.80
2023-02-02T13:47:33.423Z,2.15
2023-02-02T13:49:44.555Z,2.90
2023-02-02T13:52:10.421Z,2.30
2023-02-02T13:54:50.646Z,2.35
2023-02-02T13:57:09.069Z,2.35
2023-02-02T13:59:44.433Z,2.20
2023-02-02T14:01:53.186Z,2.42
2023-02-02T14:04:00.997Z,2.35
2023-02-02T14:06:11.229Z,2.00
2023-02-02T14:08:23.857Z,2.35
2023-02-02T14:10:34.606Z,2.90
2023-02-02T14:12:43.457Z,2.20
2023-02-02T14:14:47.859Z,1.40
2023-02-02T14:16:56.636Z,1.73
2023-02-02T14:19:03.580Z,1.83
2023-02-02T14:21:08.633Z,2.22
2023-02-02T14:23:53.862Z,2.42
2023-02-02T14:26:11.534Z,2.30
2023-02-02T14:31:08.140Z,4.07
2023-02-02T14:33:48.189Z,4.07
2023-02-02T14:36:05.543Z,3.80
2023-02-02T14:38:15.634Z,1.90
2023-02-02T14:40:50.402Z,2.20
2023-02-02T14:43:26.457Z,2.63
2023-02-02T14:45:37.154Z,2.80
2023-02-02T14:47:51.468Z,2.65
2023-02-02T14:50:01.069Z,5.43
2023-02-02T14:52:07.146Z,2.95
2023-02-02T14:54:25.901Z,3.63
2023-02-02T14:56:50.355Z,4.60
2023-02-02T14:59:03.196Z,3.90
2023-02-02T15:01:17.362Z,2.67
2023-02-02T15:03:53.140Z,1.80
2023-02-02T15:06:08.736Z,3.63
2023-02-02T15:08:35.029Z,3.05
2023-02-02T15:11:24.302Z,2.80
2023-02-02T15:13:37.741Z,1.80
2023-02-02T15:15:44.101Z,1.70
2023-02-02T15:18:03.089Z,1.80
2023-02-02T15:20:18.321Z,1.55
2023-02-02T15:22:35.116Z,1.42
2023-02-02T15:24:41.818Z,1.37
2023-02-02T15:26:48.036Z,1.50
2023-02-02T15:29:00.250Z,1.48
2023-02-02T15:31:18.188Z,1.52
2023-02-02T15:33:32.584Z,1.98
2023-02-02T15:35:38.334Z,2.20
2023-02-02T15:37:54.364Z,2.72
2023-02-02T15:40:03.339Z,2.72
2023-02-02T15:42:30.327Z,3.03
2023-02-02T15:44:39.188Z,2.95
2023-02-02T15:46:45.135Z,3.70
2023-02-02T15:49:35.328Z,3.38
2023-02-02T15:51:41.197Z,3.00
2023-02-02T15:53:52.941Z,2.28
2023-02-02T15:55:59.821Z,2.13
2023-02-02T15:58:05.850Z,2.28
2023-02-02T16:00:29.477Z,2.10
2023-02-02T16:02:43.102Z,1.60
2023-02-02T16:04:51.717Z,2.00
2023-02-02T16:06:58.692Z,1.95
2023-02-02T16:09:05.651Z,1.92
2023-02-02T16:11:14.802Z,2.05
2023-02-02T16:13:30.699Z,1.60
2023-02-02T16:15:35.959Z,1.67
2023-02-02T16:17:40.964Z,1.95
2023-02-02T16:19:50.889Z,2.40
2023-02-02T16:22:03.885Z,2.67
2023-02-02T16:24:15.181Z,2.83
2023-02-02T16:26:22.609Z,2.85
2023-02-02T16:28:29.046Z,3.30
2023-02-02T16:30:42.579Z,2.90
2023-02-02T16:32:47.517Z,4.10
2023-02-02T16:34:55.075Z,4.10
2023-02-02T16:37:15.397Z,4.03
2023-02-02T16:39:26.364Z,4.05
2023-02-02T16:41:35.944Z,4.35
2023-02-02T16:43:43.550Z,4.20
2023-02-02T16:45:52.220Z,4.93
2023-02-02T16:48:28.781Z,4.60
2023-02-02T16:50:36.582Z,4.80
2023-02-02T16:54:59.963Z,4.82
2023-02-02T16:57:07.549Z,4.93
2023-02-02T16:59:22.063Z,6.18
2023-02-02T17:01:40.788Z,6.30
2023-02-02T17:03:53.720Z,7.38
2023-02-02T17:06:04.668Z,6.47
2023-02-02T17:08:09.663Z,5.85
2023-02-02T17:10:25.248Z,7.45
2023-02-02T17:12:35.605Z,7.80
2023-02-02T17:14:52.034Z,7.70
2023-02-02T17:16:57.827Z,8.27
2023-02-02T17:19:02.798Z,7.63
2023-02-02T17:21:15.897Z,9.40
2023-02-02T17:23:21.736Z,8.57
2023-02-02T17:25:34.078Z,8.10
2023-02-02T17:27:39.125Z,8.82
2023-02-02T17:29:44.192Z,8.50
2023-02-02T17:31:49.273Z,9.60
2023-02-02T17:33:54.623Z,8.80
2023-02-02T17:35:59.929Z,9.15
2023-02-02T17:38:10.509Z,9.60
2023-02-02T17:40:17.171Z,8.77
2023-02-02T17:42:30.643Z,12.00
2023-02-02T17:44:36.378Z,12.10
2023-02-02T17:46:41.299Z,11.18
2023-02-02T17:48:46.284Z,10.93
2023-02-02T17:50:51.361Z,11.85
2023-02-02T17:52:56.525Z,12.55
2023-02-02T17:55:04.161Z,13.00
2023-02-02T17:57:09.061Z,13.30
2023-02-02T17:59:14.267Z,12.20
2023-02-02T18:01:19.312Z,12.13
2023-02-02T18:03:28.021Z,14.15
2023-02-02T18:05:33.299Z,12.90
2023-02-02T18:07:38.204Z,12.70
2023-02-02T18:09:43.431Z,12.55
2023-02-02T18:11:51.691Z,13.23
2023-02-02T18:13:57.329Z,12.20
2023-02-02T18:16:02.492Z,13.20
2023-02-02T18:18:07.851Z,13.30
2023-02-02T18:20:16.292Z,15.13
2023-02-02T18:22:21.306Z,12.13
2023-02-02T18:24:26.246Z,12.63
2023-02-02T18:26:32.690Z,12.02
2023-02-02T18:28:42.120Z,12.68
2023-02-02T18:30:47.798Z,13.68
2023-02-02T18:32:52.930Z,13.30
2023-02-02T18:34:57.920Z,13.27
2023-02-02T18:37:02.862Z,14.60
2023-02-02T18:39:07.883Z,14.02
2023-02-02T18:41:13.788Z,14.48
2023-02-02T18:43:18.972Z,15.68
2023-02-02T18:45:26.891Z,17.00
2023-02-02T18:47:32.520Z,15.63
2023-02-02T18:49:37.528Z,16.98
2023-02-02T18:51:42.461Z,18.63
2023-02-02T18:53:48.434Z,17.45
2023-02-02T18:55:53.461Z,17.98
2023-02-02T18:57:59.367Z,16.48
2023-02-02T19:00:04.455Z,17.45
2023-02-02T19:02:17.658Z,19.27
2023-02-02T19:04:22.718Z,19.10
2023-02-02T19:06:40.966Z,19.63
2023-02-02T19:08:45.904Z,21.10
2023-02-02T19:11:08.112Z,20.67
2023-02-02T19:13:20.616Z,19.48
2023-02-02T19:15:26.889Z,20.42
2023-02-02T19:17:35.680Z,19.45
2023-02-02T19:19:42.959Z,18.52
2023-02-02T19:21:48.029Z,18.35
2023-02-02T19:23:54.945Z,17.10
2023-02-02T19:25:59.977Z,20.10
2023-02-02T19:28:16.372Z,19.35
2023-02-02T19:30:25.458Z,18.23
2023-02-02T19:32:38.465Z,18.27
2023-02-02T19:34:44.913Z,18.45
2023-02-02T19:36:51.263Z,18.52
2023-02-02T19:39:04.728Z,20.05
2023-02-02T19:41:21.136Z,21.60
2023-02-02T19:43:33.160Z,22.33
2023-02-02T19:45:39.745Z,23.85
2023-02-02T19:47:48.105Z,20.52
2023-02-02T19:51:59.608Z,15.80
2023-02-02T19:54:05.164Z,21.75
2023-02-02T19:56:27.318Z,20.90
2023-02-02T19:58:38.932Z,22.05
2023-02-02T20:00:45.007Z,17.58
2023-02-02T20:03:01.011Z,17.15
2023-02-02T20:05:19.595Z,19.45
2023-02-02T20:07:27.015Z,16.75
2023-02-02T20:09:36.417Z,15.38
2023-02-02T20:11:43.948Z,14.73
2023-02-02T20:13:50.471Z,13.30
2023-02-02T20:16:03.865Z,12.68
2023-02-02T20:18:25.248Z,14.02
2023-02-02T20:20:35.422Z,15.55
2023-02-02T20:22:41.807Z,16.48
2023-02-02T20:24:48.735Z,11.93
2023-02-02T20:26:56.022Z,8.30
2023-02-02T20:29:03.728Z,8.15
2023-02-02T20:31:10.818Z,6.63
2023-02-02T20:33:27.449Z,9.82
2023-02-02T20:35:42.766Z,6.50
2023-02-02T20:37:48.060Z,5.78
2023-02-02T20:39:57.508Z,5.50
2023-02-02T20:42:03.268Z,5.78
2023-02-02T20:44:08.285Z,5.57
2023-02-02T20:46:13.369Z,6.78
2023-02-02T20:48:21.414Z,5.13
2023-02-02T20:52:31.606Z,6.40
2023-02-02T20:54:37.277Z,4.70
2023-02-02T20:56:42.260Z,4.95
2023-02-02T20:58:47.729Z,5.22
2023-02-02T21:00:53.115Z,5.55
2023-02-02T21:02:58.779Z,4.72
2023-02-02T21:05:07.324Z,4.40
2023-02-02T21:07:12.549Z,4.60
2023-02-02T21:09:18.878Z,5.10
2023-02-02T21:11:23.890Z,3.70
2023-02-02T21:13:29.072Z,4.95
2023-02-02T21:15:34.344Z,3.40
2023-02-02T21:17:41.765Z,3.65
2023-02-02T21:19:47.779Z,3.92
2023-02-02T21:21:55.851Z,3.53
2023-02-02T21:24:01.113Z,3.03
2023-02-02T21:26:08.006Z,4.10
2023-02-02T21:28:13.295Z,2.67
2023-02-02T21:30:18.539Z,2.40
2023-02-02T21:32:23.540Z,3.90
2023-02-02T21:34:28.789Z,3.13
2023-02-02T21:36:38.557Z,3.33
2023-02-02T21:38:47.538Z,3.38
2023-02-02T21:40:53.540Z,3.88
2023-02-02T21:43:03.695Z,3.47
2023-02-02T21:45:35.198Z,3.60
2023-02-02T21:47:48.380Z,3.25
2023-02-02T21:49:53.557Z,2.63
2023-02-02T21:52:02.046Z,4.35
2023-02-02T21:54:23.905Z,3.75
2023-02-02T21:56:31.422Z,3.58
2023-02-02T21:58:43.578Z,3.38
2023-02-02T22:00:49.286Z,3.20
2023-02-02T22:02:54.836Z,3.88
2023-02-02T22:05:01.857Z,3.97
2023-02-02T22:07:17.967Z,3.13
2023-02-02T22:09:29.011Z,3.13
2023-02-02T22:11:45.616Z,3.33
2023-02-02T22:13:52.253Z,2.65
2023-02-02T22:15:59.792Z,3.60
2023-02-02T22:18:18.341Z,1.27
2023-02-02T22:20:38.373Z,2.63
2023-02-02T22:22:47.037Z,2.28
2023-02-02T22:25:02.165Z,2.08
2023-02-02T22:27:25.405Z,2.17
2023-02-02T22:29:37.975Z,2.22
2023-02-02T22:31:43.092Z,2.17
2023-02-02T22:33:48.172Z,2.05
2023-02-02T22:35:53.676Z,2.78
2023-02-02T22:38:02.487Z,2.28
2023-02-02T22:40:13.146Z,2.70
2023-02-02T22:42:18.497Z,2.20
2023-02-02T22:44:24.200Z,2.70
2023-02-02T22:46:29.525Z,2.35
2023-02-02T22:48:34.838Z,2.40
2023-02-02T22:50:42.184Z,3.05
2023-02-02T22:52:48.122Z,2.90
2023-02-02T22:54:53.575Z,1.42
2023-02-02T22:57:01.550Z,3.55
2023-02-02T22:59:06.892Z,2.83
2023-02-02T23:01:13.709Z,4.30
2023-02-02T23:03:18.762Z,3.60
2023-02-02T23:05:25.501Z,4.25
2023-02-02T23:07:30.842Z,4.68
2023-02-02T23:09:36.535Z,4.35
2023-02-02T23:11:41.631Z,3.97
2023-02-02T23:15:59.173Z,4.28
2023-02-02T23:18:05.513Z,4.82
2023-02-02T23:20:14.590Z,4.15
2023-02-02T23:22:20.204Z,4.57
2023-02-02T23:24:25.549Z,4.22
2023-02-02T23:26:30.551Z,5.35
2023-02-02T23:28:35.657Z,5.28
2023-02-02T23:30:44.059Z,4.15
2023-02-02T23:32:49.169Z,5.10
2023-02-02T23:34:54.222Z,4.30
2023-02-02T23:36:59.865Z,5.40
2023-02-02T23:39:05.483Z,4.68
2023-02-02T23:41:10.494Z,5.43
2023-02-02T23:43:15.642Z,5.35
2023-02-02T23:45:20.820Z,6.00
2023-02-02T23:47:29.173Z,6.88
2023-02-02T23:49:35.472Z,6.28
2023-02-02T23:51:40.522Z,5.80
2023-02-02T23:53:45.870Z,6.85
2023-02-02T23:55:51.566Z,6.53
2023-02-02T23:58:00.505Z,7.65
